sensor_id;sensor_type;location;lat;lon;timestamp;pressure;altitude;pressure_sealevel;temperature;humidity
60976;BME280;46849;48.154;17.042;2022-12-04T00:00:30;99265.38;;;3.01;100.00
60976;BME280;46849;48.154;17.042;2022-12-04T00:03:18;99263.06;;;2.91;100.00
60976;BME280;46849;48.154;17.042;2022-12-04T00:06:11;99261.94;;;3.00;100.00
60976;BME280;46849;48.154;17.042;2022-12-04T00:08:56;99250.25;;;2.87;100.00
60976;BME280;46849;48.154;17.042;2022-12-04T00:11:41;99256.47;;;2.79;100.00
60976;BME280;46849;48.154;17.042;2022-12-04T00:14:26;99254.44;;;2.91;100.00
60976;BME280;46849;48.154;17.042;2022-12-04T00:17:10;99256.97;;;2.92;100.00
60976;BME280;46849;48.154;17.042;2022-12-04T00:19:55;99257.03;;;2.91;100.00
60976;BME280;46849;48.154;17.042;2022-12-04T00:22:40;99263.00;;;2.93;100.00
60976;BME280;46849;48.154;17.042;2022-12-04T00:25:25;99254.47;;;2.89;100.00
60976;BME280;46849;48.154;17.042;2022-12-04T00:28:09;99257.38;;;2.78;100.00
60976;BME280;46849;48.154;17.042;2022-12-04T00:30:54;99268.47;;;2.83;100.00
60976;BME280;46849;48.154;17.042;2022-12-04T00:33:40;99259.09;;;2.78;100.00
60976;BME280;46849;48.154;17.042;2022-12-04T00:36:26;99253.88;;;2.79;100.00
60976;BME280;46849;48.154;17.042;2022-12-04T00:39:11;99257.38;;;2.78;100.00
60976;BME280;46849;48.154;17.042;2022-12-04T00:41:56;99263.47;;;2.77;100.00
60976;BME280;46849;48.154;17.042;2022-12-04T00:44:40;99262.66;;;2.75;100.00
60976;BME280;46849;48.154;17.042;2022-12-04T00:47:25;99261.59;;;2.81;100.00
60976;BME280;46849;48.154;17.042;2022-12-04T00:50:10;99274.50;;;2.82;100.00
60976;BME280;46849;48.154;17.042;2022-12-04T00:52:55;99259.97;;;2.78;100.00
60976;BME280;46849;48.154;17.042;2022-12-04T00:55:41;99275.50;;;2.78;100.00
60976;BME280;46849;48.154;17.042;2022-12-04T00:58:27;99271.88;;;2.84;100.00
60976;BME280;46849;48.154;17.042;2022-12-04T01:01:15;99275.50;;;2.78;100.00
60976;BME280;46849;48.154;17.042;2022-12-04T01:04:01;99274.47;;;2.84;100.00
60976;BME280;46849;48.154;17.042;2022-12-04T01:06:46;99272.63;;;2.88;100.00
60976;BME280;46849;48.154;17.042;2022-12-04T01:09:31;99271.91;;;2.82;100.00
60976;BME280;46849;48.154;17.042;2022-12-04T01:12:16;99271.09;;;2.82;100.00
60976;BME280;46849;48.154;17.042;2022-12-04T01:15:02;99268.59;;;2.79;100.00
60976;BME280;46849;48.154;17.042;2022-12-04T01:17:46;99262.59;;;2.77;100.00
60976;BME280;46849;48.154;17.042;2022-12-04T01:20:32;99265.09;;;2.80;100.00
60976;BME280;46849;48.154;17.042;2022-12-04T01:23:18;99259.94;;;2.80;100.00
60976;BME280;46849;48.154;17.042;2022-12-04T01:26:03;99256.44;;;2.81;100.00
60976;BME280;46849;48.154;17.042;2022-12-04T01:28:47;99246.09;;;2.81;100.00
60976;BME280;46849;48.154;17.042;2022-12-04T01:31:32;99235.88;;;2.76;100.00
60976;BME280;46849;48.154;17.042;2022-12-04T01:34:17;99244.44;;;2.78;100.00
60976;BME280;46849;48.154;17.042;2022-12-04T01:37:02;99245.94;;;2.87;100.00
60976;BME280;46849;48.154;17.042;2022-12-04T01:39:47;99246.81;;;2.86;100.00
60976;BME280;46849;48.154;17.042;2022-12-04T01:42:32;99250.38;;;2.82;100.00
60976;BME280;46849;48.154;17.042;2022-12-04T01:45:38;99249.38;;;2.86;100.00
60976;BME280;46849;48.154;17.042;2022-12-04T01:48:27;99248.56;;;2.84;100.00
60976;BME280;46849;48.154;17.042;2022-12-04T01:51:27;99246.91;;;2.83;100.00
60976;BME280;46849;48.154;17.042;2022-12-04T01:54:19;99246.13;;;2.79;100.00
60976;BME280;46849;48.154;17.042;2022-12-04T01:57:10;99236.00;;;2.71;100.00
60976;BME280;46849;48.154;17.042;2022-12-04T01:59:59;99235.22;;;2.68;100.00
60976;BME280;46849;48.154;17.042;2022-12-04T02:02:45;99233.50;;;2.68;100.00
60976;BME280;46849;48.154;17.042;2022-12-04T02:05:30;99235.09;;;2.73;100.00
60976;BME280;46849;48.154;17.042;2022-12-04T02:08:15;99235.16;;;2.71;100.00
60976;BME280;46849;48.154;17.042;2022-12-04T02:14:21;99242.31;;;2.63;100.00
60976;BME280;46849;48.154;17.042;2022-12-04T02:17:15;99246.41;;;2.70;100.00
60976;BME280;46849;48.154;17.042;2022-12-04T02:20:13;99253.16;;;2.76;100.00
60976;BME280;46849;48.154;17.042;2022-12-04T02:26:35;99240.44;;;2.66;100.00
60976;BME280;46849;48.154;17.042;2022-12-04T02:32:21;99227.44;;;2.69;100.00
60976;BME280;46849;48.154;17.042;2022-12-04T02:35:14;99224.09;;;2.66;100.00
60976;BME280;46849;48.154;17.042;2022-12-04T02:38:08;99226.59;;;2.69;100.00
60976;BME280;46849;48.154;17.042;2022-12-04T02:41:01;99229.97;;;2.71;100.00
60976;BME280;46849;48.154;17.042;2022-12-04T02:43:52;99241.19;;;2.71;100.00
60976;BME280;46849;48.154;17.042;2022-12-04T02:46:41;99230.81;;;2.71;100.00
60976;BME280;46849;48.154;17.042;2022-12-04T02:49:53;99217.72;;;2.78;100.00
60976;BME280;46849;48.154;17.042;2022-12-04T02:52:44;99216.16;;;2.72;100.00
60976;BME280;46849;48.154;17.042;2022-12-04T02:55:35;99203.13;;;2.75;100.00
60976;BME280;46849;48.154;17.042;2022-12-04T02:58:29;99217.75;;;2.76;100.00
60976;BME280;46849;48.154;17.042;2022-12-04T03:01:16;99226.41;;;2.75;100.00
60976;BME280;46849;48.154;17.042;2022-12-04T03:04:13;99224.59;;;2.79;100.00
60976;BME280;46849;48.154;17.042;2022-12-04T03:07:05;99223.75;;;2.78;100.00
60976;BME280;46849;48.154;17.042;2022-12-04T03:09:57;99225.59;;;2.73;100.00
60976;BME280;46849;48.154;17.042;2022-12-04T03:12:56;99225.56;;;2.75;100.00
60976;BME280;46849;48.154;17.042;2022-12-04T03:15:46;99208.44;;;2.70;100.00
60976;BME280;46849;48.154;17.042;2022-12-04T03:18:42;99199.78;;;2.71;100.00
60976;BME280;46849;48.154;17.042;2022-12-04T03:21:35;99202.28;;;2.75;100.00
60976;BME280;46849;48.154;17.042;2022-12-04T03:24:35;99202.19;;;2.78;100.00
60976;BME280;46849;48.154;17.042;2022-12-04T03:27:32;99201.50;;;2.71;100.00
60976;BME280;46849;48.154;17.042;2022-12-04T03:30:22;99211.78;;;2.74;100.00
60976;BME280;46849;48.154;17.042;2022-12-04T03:33:16;99218.59;;;2.77;100.00
60976;BME280;46849;48.154;17.042;2022-12-04T03:36:21;99204.81;;;2.76;100.00
60976;BME280;46849;48.154;17.042;2022-12-04T03:39:22;99208.34;;;2.74;100.00
60976;BME280;46849;48.154;17.042;2022-12-04T03:42:22;99206.63;;;2.74;100.00
60976;BME280;46849;48.154;17.042;2022-12-04T03:51:08;99215.22;;;2.75;100.00
60976;BME280;46849;48.154;17.042;2022-12-04T03:56:49;99215.03;;;2.81;100.00
60976;BME280;46849;48.154;17.042;2022-12-04T03:59:40;99210.81;;;2.78;100.00
60976;BME280;46849;48.154;17.042;2022-12-04T04:02:32;99190.28;;;2.72;100.00
60976;BME280;46849;48.154;17.042;2022-12-04T04:05:19;99198.88;;;2.73;100.00
60976;BME280;46849;48.154;17.042;2022-12-04T04:08:06;99199.63;;;2.76;100.00
60976;BME280;46849;48.154;17.042;2022-12-04T04:11:14;99199.72;;;2.73;100.00
60976;BME280;46849;48.154;17.042;2022-12-04T04:14:04;99193.84;;;2.68;100.00
60976;BME280;46849;48.154;17.042;2022-12-04T04:17:12;99206.13;;;2.61;100.00
60976;BME280;46849;48.154;17.042;2022-12-04T04:20:22;99209.63;;;2.58;100.00
60976;BME280;46849;48.154;17.042;2022-12-04T04:23:30;99203.56;;;2.59;100.00
60976;BME280;46849;48.154;17.042;2022-12-04T04:26:42;99202.91;;;2.53;100.00
60976;BME280;46849;48.154;17.042;2022-12-04T04:29:28;99205.41;;;2.56;100.00
60976;BME280;46849;48.154;17.042;2022-12-04T04:32:40;99210.41;;;2.62;100.00
60976;BME280;46849;48.154;17.042;2022-12-04T04:35:50;99215.66;;;2.59;100.00
60976;BME280;46849;48.154;17.042;2022-12-04T04:38:44;99207.13;;;2.55;100.00
60976;BME280;46849;48.154;17.042;2022-12-04T04:41:42;99201.06;;;2.56;100.00
60976;BME280;46849;48.154;17.042;2022-12-04T04:44:43;99202.91;;;2.53;100.00
60976;BME280;46849;48.154;17.042;2022-12-04T04:47:57;99200.38;;;2.51;100.00
60976;BME280;46849;48.154;17.042;2022-12-04T04:50:44;99206.41;;;2.50;100.00
60976;BME280;46849;48.154;17.042;2022-12-04T04:53:38;99192.50;;;2.54;100.00
60976;BME280;46849;48.154;17.042;2022-12-04T04:56:25;99197.84;;;2.48;100.00
60976;BME280;46849;48.154;17.042;2022-12-04T04:59:11;99193.75;;;2.41;100.00
60976;BME280;46849;48.154;17.042;2022-12-04T05:01:56;99198.66;;;2.50;100.00
60976;BME280;46849;48.154;17.042;2022-12-04T05:04:41;99187.63;;;2.43;100.00
60976;BME280;46849;48.154;17.042;2022-12-04T05:07:26;99182.41;;;2.45;100.00
60976;BME280;46849;48.154;17.042;2022-12-04T05:10:10;99193.69;;;2.42;100.00
60976;BME280;46849;48.154;17.042;2022-12-04T05:12:55;99198.66;;;2.50;100.00
60976;BME280;46849;48.154;17.042;2022-12-04T05:15:40;99197.06;;;2.46;100.00
60976;BME280;46849;48.154;17.042;2022-12-04T05:18:26;99196.25;;;2.44;100.00
60976;BME280;46849;48.154;17.042;2022-12-04T05:21:12;99202.28;;;2.44;100.00
60976;BME280;46849;48.154;17.042;2022-12-04T05:24:02;99193.56;;;2.47;100.00
60976;BME280;46849;48.154;17.042;2022-12-04T05:26:47;99184.94;;;2.46;100.00
60976;BME280;46849;48.154;17.042;2022-12-04T05:29:32;99180.72;;;2.44;100.00
60976;BME280;46849;48.154;17.042;2022-12-04T05:32:16;99169.53;;;2.43;100.00
60976;BME280;46849;48.154;17.042;2022-12-04T05:35:01;99171.47;;;2.37;100.00
60976;BME280;46849;48.154;17.042;2022-12-04T05:37:46;99177.59;;;2.32;100.00
60976;BME280;46849;48.154;17.042;2022-12-04T05:40:31;99175.09;;;2.29;100.00
60976;BME280;46849;48.154;17.042;2022-12-04T05:43:19;99181.94;;;2.30;100.00
60976;BME280;46849;48.154;17.042;2022-12-04T05:46:06;99184.41;;;2.35;100.00
60976;BME280;46849;48.154;17.042;2022-12-04T05:48:51;99186.25;;;2.31;100.00
60976;BME280;46849;48.154;17.042;2022-12-04T05:51:36;99178.78;;;2.20;100.00
60976;BME280;46849;48.154;17.042;2022-12-04T05:54:21;99181.41;;;2.19;100.00
60976;BME280;46849;48.154;17.042;2022-12-04T05:57:06;99185.47;;;2.28;100.00
60976;BME280;46849;48.154;17.042;2022-12-04T05:59:51;99192.59;;;2.19;100.00
60976;BME280;46849;48.154;17.042;2022-12-04T06:02:36;99194.25;;;2.22;100.00
60976;BME280;46849;48.154;17.042;2022-12-04T06:05:21;99202.13;;;2.17;100.00
60976;BME280;46849;48.154;17.042;2022-12-04T06:08:06;99200.13;;;2.27;100.00
60976;BME280;46849;48.154;17.042;2022-12-04T06:11:08;99200.91;;;2.31;100.00
60976;BME280;46849;48.154;17.042;2022-12-04T06:13:54;99213.25;;;2.21;100.00
60976;BME280;46849;48.154;17.042;2022-12-04T06:16:42;99225.53;;;2.13;100.00
60976;BME280;46849;48.154;17.042;2022-12-04T06:19:27;99226.41;;;2.12;100.00
60976;BME280;46849;48.154;17.042;2022-12-04T06:22:14;99220.09;;;2.24;100.00
60976;BME280;46849;48.154;17.042;2022-12-04T06:24:59;99225.66;;;2.08;100.00
60976;BME280;46849;48.154;17.042;2022-12-04T06:27:43;99244.47;;;2.13;100.00
60976;BME280;46849;48.154;17.042;2022-12-04T06:30:28;99231.53;;;2.13;100.00
60976;BME280;46849;48.154;17.042;2022-12-04T06:33:13;99229.94;;;2.07;100.00
60976;BME280;46849;48.154;17.042;2022-12-04T06:36:03;99235.69;;;2.19;100.00
60976;BME280;46849;48.154;17.042;2022-12-04T06:38:50;99247.72;;;2.21;100.00
60976;BME280;46849;48.154;17.042;2022-12-04T06:41:42;99261.53;;;2.19;100.00
60976;BME280;46849;48.154;17.042;2022-12-04T06:44:30;99248.47;;;2.25;100.00
60976;BME280;46849;48.154;17.042;2022-12-04T06:47:15;99245.91;;;2.25;100.00
60976;BME280;46849;48.154;17.042;2022-12-04T06:50:02;99262.66;;;2.10;100.00
60976;BME280;46849;48.154;17.042;2022-12-04T06:52:52;99259.25;;;2.08;100.00
60976;BME280;46849;48.154;17.042;2022-12-04T06:55:38;99264.59;;;2.02;100.00
60976;BME280;46849;48.154;17.042;2022-12-04T06:58:24;99250.75;;;2.03;100.00
60976;BME280;46849;48.154;17.042;2022-12-04T07:01:11;99248.00;;;2.09;100.00
60976;BME280;46849;48.154;17.042;2022-12-04T07:03:57;99236.84;;;2.08;100.00
60976;BME280;46849;48.154;17.042;2022-12-04T07:06:43;99229.22;;;2.04;100.00
60976;BME280;46849;48.154;17.042;2022-12-04T07:09:28;99240.34;;;2.06;100.00
60976;BME280;46849;48.154;17.042;2022-12-04T07:12:13;99249.72;;;2.10;100.00
60976;BME280;46849;48.154;17.042;2022-12-04T07:14:59;99250.03;;;1.97;100.00
60976;BME280;46849;48.154;17.042;2022-12-04T07:17:43;99245.84;;;1.93;100.00
60976;BME280;46849;48.154;17.042;2022-12-04T07:20:29;99228.63;;;1.92;100.00
60976;BME280;46849;48.154;17.042;2022-12-04T07:23:14;99226.16;;;1.88;100.00
60976;BME280;46849;48.154;17.042;2022-12-04T07:26:09;99225.94;;;1.97;100.00
60976;BME280;46849;48.154;17.042;2022-12-04T07:28:56;99237.75;;;2.06;100.00
60976;BME280;46849;48.154;17.042;2022-12-04T07:31:41;99252.59;;;1.99;100.00
60976;BME280;46849;48.154;17.042;2022-12-04T07:34:27;99256.28;;;2.22;100.00
60976;BME280;46849;48.154;17.042;2022-12-04T07:37:12;99252.50;;;2.02;100.00
60976;BME280;46849;48.154;17.042;2022-12-04T07:39:57;99259.72;;;2.22;100.00
60976;BME280;46849;48.154;17.042;2022-12-04T07:42:42;99273.03;;;2.08;100.00
60976;BME280;46849;48.154;17.042;2022-12-04T07:45:26;99270.69;;;2.32;100.00
60976;BME280;46849;48.154;17.042;2022-12-04T07:48:11;99277.03;;;2.20;100.00
60976;BME280;46849;48.154;17.042;2022-12-04T07:51:06;99272.94;;;2.12;100.00
60976;BME280;46849;48.154;17.042;2022-12-04T07:53:52;99268.72;;;2.07;100.00
60976;BME280;46849;48.154;17.042;2022-12-04T07:56:37;99273.84;;;2.09;100.00
60976;BME280;46849;48.154;17.042;2022-12-04T07:59:22;99274.78;;;2.06;100.00
60976;BME280;46849;48.154;17.042;2022-12-04T08:02:06;99269.63;;;2.06;100.00
60976;BME280;46849;48.154;17.042;2022-12-04T08:04:51;99269.72;;;2.03;100.00
60976;BME280;46849;48.154;17.042;2022-12-04T08:07:36;99271.28;;;2.09;100.00
60976;BME280;46849;48.154;17.042;2022-12-04T08:10:21;99269.91;;;1.95;100.00
60976;BME280;46849;48.154;17.042;2022-12-04T08:13:05;99248.09;;;2.06;100.00
60976;BME280;46849;48.154;17.042;2022-12-04T08:15:51;99249.06;;;2.02;100.00
60976;BME280;46849;48.154;17.042;2022-12-04T08:18:35;99250.25;;;1.88;100.00
60976;BME280;46849;48.154;17.042;2022-12-04T08:21:23;99250.03;;;1.97;100.00
60976;BME280;46849;48.154;17.042;2022-12-04T08:24:08;99250.03;;;1.97;100.00
60976;BME280;46849;48.154;17.042;2022-12-04T08:26:53;99247.63;;;1.90;100.00
60976;BME280;46849;48.154;17.042;2022-12-04T08:29:38;99245.09;;;1.88;100.00
60976;BME280;46849;48.154;17.042;2022-12-04T08:32:23;99221.78;;;2.25;100.00
60976;BME280;46849;48.154;17.042;2022-12-04T08:35:08;99237.25;;;2.26;100.00
60976;BME280;46849;48.154;17.042;2022-12-04T08:37:53;99233.41;;;2.08;100.00
60976;BME280;46849;48.154;17.042;2022-12-04T08:40:37;99236.09;;;2.03;100.00
60976;BME280;46849;48.154;17.042;2022-12-04T08:43:24;99236.88;;;2.07;100.00
60976;BME280;46849;48.154;17.042;2022-12-04T08:46:14;99235.84;;;2.13;100.00
60976;BME280;46849;48.154;17.042;2022-12-04T08:49:00;99248.03;;;2.07;100.00
60976;BME280;46849;48.154;17.042;2022-12-04T08:51:45;99250.59;;;2.09;100.00
60976;BME280;46849;48.154;17.042;2022-12-04T08:54:30;99244.09;;;2.27;100.00
60976;BME280;46849;48.154;17.042;2022-12-04T08:57:15;99246.38;;;2.06;100.00
60976;BME280;46849;48.154;17.042;2022-12-04T09:00:01;99258.47;;;2.04;100.00
60976;BME280;46849;48.154;17.042;2022-12-04T09:02:49;99253.66;;;2.25;100.00
60976;BME280;46849;48.154;17.042;2022-12-04T09:05:37;99255.34;;;2.26;100.00
60976;BME280;46849;48.154;17.042;2022-12-04T09:08:21;99267.91;;;2.07;100.00
60976;BME280;46849;48.154;17.042;2022-12-04T09:11:10;99256.47;;;2.16;100.00
60976;BME280;46849;48.154;17.042;2022-12-04T09:13:55;99246.81;;;2.22;100.00
60976;BME280;46849;48.154;17.042;2022-12-04T09:16:39;99255.88;;;2.04;100.00
60976;BME280;46849;48.154;17.042;2022-12-04T09:19:24;99238.91;;;5.46;100.00
60976;BME280;46849;48.154;17.042;2022-12-04T09:22:09;99240.28;;;6.40;100.00
60976;BME280;46849;48.154;17.042;2022-12-04T09:24:54;99226.28;;;4.90;100.00
60976;BME280;46849;48.154;17.042;2022-12-04T09:27:39;99238.03;;;6.11;100.00
60976;BME280;46849;48.154;17.042;2022-12-04T09:30:26;99240.53;;;3.24;100.00
60976;BME280;46849;48.154;17.042;2022-12-04T09:33:11;99238.94;;;2.59;100.00
60976;BME280;46849;48.154;17.042;2022-12-04T09:36:00;99244.91;;;2.29;100.00
60976;BME280;46849;48.154;17.042;2022-12-04T09:38:47;99241.59;;;2.24;100.00
60976;BME280;46849;48.154;17.042;2022-12-04T09:44:26;99225.03;;;2.31;100.00
60976;BME280;46849;48.154;17.042;2022-12-04T09:47:27;99228.50;;;2.62;100.00
60976;BME280;46849;48.154;17.042;2022-12-04T09:50:38;99232.81;;;2.31;100.00
60976;BME280;46849;48.154;17.042;2022-12-04T09:53:26;99259.25;;;2.08;100.00
60976;BME280;46849;48.154;17.042;2022-12-04T09:56:15;99243.63;;;2.13;100.00
60976;BME280;46849;48.154;17.042;2022-12-04T09:59:17;99235.28;;;2.01;100.00
60976;BME280;46849;48.154;17.042;2022-12-04T10:02:43;99239.25;;;2.15;100.00
60976;BME280;46849;48.154;17.042;2022-12-04T10:06:03;99239.50;;;2.05;100.00
60976;BME280;46849;48.154;17.042;2022-12-04T10:09:03;99226.53;;;2.07;100.00
60976;BME280;46849;48.154;17.042;2022-12-04T10:12:01;99231.06;;;1.99;100.00
60976;BME280;46849;48.154;17.042;2022-12-04T10:15:01;99229.50;;;1.91;100.00
60976;BME280;46849;48.154;17.042;2022-12-04T10:18:15;99236.38;;;1.92;100.00
60976;BME280;46849;48.154;17.042;2022-12-04T10:21:18;99241.63;;;1.89;100.00
60976;BME280;46849;48.154;17.042;2022-12-04T10:24:27;99245.00;;;1.91;100.00
60976;BME280;46849;48.154;17.042;2022-12-04T10:27:43;99239.69;;;1.97;100.00
60976;BME280;46849;48.154;17.042;2022-12-04T10:30:33;99235.94;;;2.09;100.00
60976;BME280;46849;48.154;17.042;2022-12-04T10:33:40;99230.47;;;2.20;100.00
60976;BME280;46849;48.154;17.042;2022-12-04T10:36:32;99221.44;;;7.12;100.00
60976;BME280;46849;48.154;17.042;2022-12-04T10:39:23;99208.56;;;9.17;100.00
60976;BME280;46849;48.154;17.042;2022-12-04T10:42:30;99197.97;;;8.71;100.00
60976;BME280;46849;48.154;17.042;2022-12-04T10:45:21;99209.63;;;4.96;100.00
60976;BME280;46849;48.154;17.042;2022-12-04T10:48:12;99218.19;;;3.75;100.00
60976;BME280;46849;48.154;17.042;2022-12-04T10:51:02;99215.25;;;3.59;100.00
60976;BME280;46849;48.154;17.042;2022-12-04T10:53:47;99199.25;;;2.90;100.00
60976;BME280;46849;48.154;17.042;2022-12-04T10:56:33;99198.25;;;3.23;100.00
60976;BME280;46849;48.154;17.042;2022-12-04T10:59:17;99194.09;;;3.17;100.00
60976;BME280;46849;48.154;17.042;2022-12-04T11:02:22;99199.66;;;3.05;100.00
60976;BME280;46849;48.154;17.042;2022-12-04T11:05:23;99195.94;;;3.14;100.00
60976;BME280;46849;48.154;17.042;2022-12-04T11:08:20;99196.50;;;2.95;100.00
60976;BME280;46849;48.154;17.042;2022-12-04T11:11:12;99193.03;;;2.96;100.00
60976;BME280;46849;48.154;17.042;2022-12-04T11:14:20;99196.38;;;2.69;100.00
60976;BME280;46849;48.154;17.042;2022-12-04T11:17:06;99194.50;;;2.75;100.00
60976;BME280;46849;48.154;17.042;2022-12-04T11:20:03;99191.28;;;2.66;100.00
60976;BME280;46849;48.154;17.042;2022-12-04T11:22:54;99195.91;;;6.01;100.00
60976;BME280;46849;48.154;17.042;2022-12-04T11:25:47;99178.38;;;7.59;100.00
60976;BME280;46849;48.154;17.042;2022-12-04T11:28:34;99175.91;;;4.72;100.00
60976;BME280;46849;48.154;17.042;2022-12-04T11:31:21;99173.81;;;3.85;100.00
60976;BME280;46849;48.154;17.042;2022-12-04T11:34:07;99169.66;;;3.53;100.00
60976;BME280;46849;48.154;17.042;2022-12-04T11:37:01;99165.53;;;3.20;100.00
60976;BME280;46849;48.154;17.042;2022-12-04T11:39:46;99178.72;;;3.40;100.00
60976;BME280;46849;48.154;17.042;2022-12-04T11:42:31;99158.91;;;3.39;100.00
60976;BME280;46849;48.154;17.042;2022-12-04T11:45:21;99149.19;;;3.18;100.00
60976;BME280;46849;48.154;17.042;2022-12-04T11:48:17;99147.78;;;3.35;100.00
60976;BME280;46849;48.154;17.042;2022-12-04T11:51:13;99135.75;;;3.34;100.00
60976;BME280;46849;48.154;17.042;2022-12-04T11:54:21;99135.50;;;3.15;100.00
60976;BME280;46849;48.154;17.042;2022-12-04T11:57:42;99126.69;;;3.20;100.00
60976;BME280;46849;48.154;17.042;2022-12-04T12:00:32;99117.38;;;3.15;100.00
60976;BME280;46849;48.154;17.042;2022-12-04T12:03:29;99122.59;;;3.13;100.00
60976;BME280;46849;48.154;17.042;2022-12-04T12:06:31;99120.53;;;3.25;100.00
60976;BME280;46849;48.154;17.042;2022-12-04T12:09:32;99121.88;;;3.35;100.00
60976;BME280;46849;48.154;17.042;2022-12-04T12:12:52;99112.34;;;3.37;100.00
60976;BME280;46849;48.154;17.042;2022-12-04T12:24:30;99124.91;;;3.75;100.00
60976;BME280;46849;48.154;17.042;2022-12-04T12:27:53;99114.59;;;3.72;100.00
60976;BME280;46849;48.154;17.042;2022-12-04T12:30:50;99106.19;;;3.91;100.00
60976;BME280;46849;48.154;17.042;2022-12-04T12:33:47;99104.25;;;3.98;100.00
60976;BME280;46849;48.154;17.042;2022-12-04T12:36:41;99129.19;;;4.00;100.00
60976;BME280;46849;48.154;17.042;2022-12-04T12:39:41;99115.19;;;4.06;100.00
60976;BME280;46849;48.154;17.042;2022-12-04T12:42:40;99112.38;;;4.12;100.00
60976;BME280;46849;48.154;17.042;2022-12-04T12:49:11;99108.19;;;4.32;100.00
60976;BME280;46849;48.154;17.042;2022-12-04T12:52:11;99106.94;;;4.18;100.00
60976;BME280;46849;48.154;17.042;2022-12-04T12:55:22;99104.13;;;4.25;100.00
60976;BME280;46849;48.154;17.042;2022-12-04T12:58:25;99115.47;;;4.22;100.00
60976;BME280;46849;48.154;17.042;2022-12-04T13:01:17;99105.78;;;4.27;100.00
60976;BME280;46849;48.154;17.042;2022-12-04T13:04:13;99107.56;;;4.25;100.00
60976;BME280;46849;48.154;17.042;2022-12-04T13:10:05;99124.50;;;3.86;100.00
60976;BME280;46849;48.154;17.042;2022-12-04T13:12:57;99108.16;;;3.84;100.00
60976;BME280;46849;48.154;17.042;2022-12-04T13:15:49;99103.16;;;4.03;100.00
60976;BME280;46849;48.154;17.042;2022-12-04T13:18:39;99094.47;;;4.28;100.00
60976;BME280;46849;48.154;17.042;2022-12-04T13:21:32;99099.75;;;4.03;100.00
60976;BME280;46849;48.154;17.042;2022-12-04T13:24:49;99104.34;;;3.94;100.00
60976;BME280;46849;48.154;17.042;2022-12-04T13:30:53;99101.41;;;3.80;100.00
60976;BME280;46849;48.154;17.042;2022-12-04T13:42:21;99102.97;;;3.84;100.00
60976;BME280;46849;48.154;17.042;2022-12-04T13:45:09;99097.78;;;4.10;100.00
60976;BME280;46849;48.154;17.042;2022-12-04T13:47:57;99103.31;;;3.99;100.00
60976;BME280;46849;48.154;17.042;2022-12-04T13:50:43;99103.13;;;3.79;100.00
60976;BME280;46849;48.154;17.042;2022-12-04T13:53:34;99122.81;;;3.60;100.00
60976;BME280;46849;48.154;17.042;2022-12-04T13:56:25;99128.38;;;3.49;100.00
60976;BME280;46849;48.154;17.042;2022-12-04T14:02:29;99137.00;;;3.49;100.00
60976;BME280;46849;48.154;17.042;2022-12-04T14:05:29;99132.78;;;3.45;100.00
60976;BME280;46849;48.154;17.042;2022-12-04T14:11:06;99144.22;;;3.39;100.00
60976;BME280;46849;48.154;17.042;2022-12-04T14:13:55;99142.47;;;3.40;100.00
60976;BME280;46849;48.154;17.042;2022-12-04T14:16:41;99136.72;;;3.30;100.00
60976;BME280;46849;48.154;17.042;2022-12-04T14:19:34;99139.47;;;3.25;100.00
60976;BME280;46849;48.154;17.042;2022-12-04T14:22:41;99150.00;;;3.48;100.00
60976;BME280;46849;48.154;17.042;2022-12-04T14:25:38;99160.69;;;3.37;100.00
60976;BME280;46849;48.154;17.042;2022-12-04T14:31:24;99155.47;;;3.11;100.00
60976;BME280;46849;48.154;17.042;2022-12-04T14:34:23;99146.28;;;3.01;100.00
60976;BME280;46849;48.154;17.042;2022-12-04T14:37:19;99156.38;;;3.08;100.00
60976;BME280;46849;48.154;17.042;2022-12-04T14:40:06;99149.63;;;3.04;100.00
60976;BME280;46849;48.154;17.042;2022-12-04T14:42:59;99152.41;;;2.98;100.00
60976;BME280;46849;48.154;17.042;2022-12-04T14:46:11;99152.38;;;3.00;100.00
60976;BME280;46849;48.154;17.042;2022-12-04T14:52:19;99156.63;;;3.01;100.00
60976;BME280;46849;48.154;17.042;2022-12-04T14:55:13;99152.38;;;3.00;100.00
60976;BME280;46849;48.154;17.042;2022-12-04T14:58:08;99155.47;;;3.11;100.00
60976;BME280;46849;48.154;17.042;2022-12-04T15:01:21;99148.97;;;2.98;100.00
60976;BME280;46849;48.154;17.042;2022-12-04T15:04:29;99148.00;;;3.02;100.00
60976;BME280;46849;48.154;17.042;2022-12-04T15:07:23;99147.69;;;3.11;100.00
60976;BME280;46849;48.154;17.042;2022-12-04T15:10:26;99150.88;;;3.19;100.00
60976;BME280;46849;48.154;17.042;2022-12-04T15:13:36;99151.03;;;3.15;100.00
60976;BME280;46849;48.154;17.042;2022-12-04T15:16:23;99144.75;;;3.22;100.00
60976;BME280;46849;48.154;17.042;2022-12-04T15:19:16;99147.41;;;3.20;100.00
60976;BME280;46849;48.154;17.042;2022-12-04T15:22:03;99146.63;;;3.17;100.00
60976;BME280;46849;48.154;17.042;2022-12-04T15:24:49;99144.91;;;3.17;100.00
60976;BME280;46849;48.154;17.042;2022-12-04T15:27:36;99136.09;;;3.23;100.00
60976;BME280;46849;48.154;17.042;2022-12-04T15:30:22;99141.34;;;3.20;100.00
60976;BME280;46849;48.154;17.042;2022-12-04T15:33:11;99141.47;;;3.17;100.00
60976;BME280;46849;48.154;17.042;2022-12-04T15:38:47;99140.47;;;3.21;100.00
60976;BME280;46849;48.154;17.042;2022-12-04T15:41:35;99143.06;;;3.21;100.00
60976;BME280;46849;48.154;17.042;2022-12-04T15:44:27;99138.69;;;3.23;100.00
60976;BME280;46849;48.154;17.042;2022-12-04T15:47:23;99146.63;;;3.17;100.00
60976;BME280;46849;48.154;17.042;2022-12-04T15:55:55;99140.19;;;3.03;100.00
60976;BME280;46849;48.154;17.042;2022-12-04T15:58:40;99141.44;;;2.90;100.00
60976;BME280;46849;48.154;17.042;2022-12-04T16:01:38;99147.44;;;2.92;100.00
60976;BME280;46849;48.154;17.042;2022-12-04T16:04:27;99142.34;;;2.89;100.00